createdAt,value
2023-04-23T00:00:21.120Z,48.04
2023-04-23T00:01:21.022Z,46.72
2023-04-23T00:02:21.068Z,49.79
2023-04-23T00:03:22.107Z,45.38
2023-04-23T00:04:21.185Z,57.44
2023-04-23T00:05:21.001Z,46.14
2023-04-23T00:06:20.982Z,44.17
2023-04-23T00:07:20.994Z,43.77
2023-04-23T00:08:20.992Z,49.90
2023-04-23T00:09:20.963Z,51.07
2023-04-23T00:10:20.935Z,49.49
2023-04-23T00:11:20.939Z,43.70
2023-04-23T00:12:20.969Z,43.84
2023-04-23T00:13:20.963Z,43.94
2023-04-23T00:14:20.909Z,44.05
2023-04-23T00:15:20.909Z,49.82
2023-04-23T00:16:20.922Z,43.60
2023-04-23T00:17:21.026Z,49.72
2023-04-23T00:18:20.873Z,48.69
2023-04-23T00:19:20.919Z,49.91
2023-04-23T00:20:20.879Z,51.37
2023-04-23T00:21:20.862Z,48.75
2023-04-23T00:22:20.861Z,43.23
2023-04-23T00:23:20.888Z,49.11
2023-04-23T00:24:20.876Z,43.89
2023-04-23T00:25:20.817Z,44.14
2023-04-23T00:26:20.830Z,53.76
2023-04-23T00:27:20.797Z,45.81
2023-04-23T00:28:22.267Z,51.12
2023-04-23T00:29:21.787Z,43.54
2023-04-23T00:30:20.806Z,45.72
2023-04-23T00:31:20.757Z,51.89
2023-04-23T00:32:20.811Z,45.28
2023-04-23T00:33:20.926Z,46.78
2023-04-23T00:34:20.751Z,43.33
2023-04-23T00:35:21.658Z,50.48
2023-04-23T00:36:20.818Z,48.33
2023-04-23T00:37:20.718Z,43.21
2023-04-23T00:38:20.723Z,43.21
2023-04-23T00:39:20.728Z,51.44
2023-04-23T00:40:20.755Z,48.29
2023-04-23T00:41:20.691Z,45.65
2023-04-23T00:42:20.676Z,43.04
2023-04-23T00:43:20.715Z,43.04
2023-04-23T00:44:20.694Z,43.06
2023-04-23T00:45:20.652Z,43.15
2023-04-23T00:46:21.765Z,49.42
2023-04-23T00:47:20.685Z,43.49
2023-04-23T00:48:20.630Z,47.79
2023-04-23T00:49:20.733Z,43.69
2023-04-23T00:50:20.637Z,43.21
2023-04-23T00:51:20.643Z,43.24
2023-04-23T00:52:20.617Z,43.25
2023-04-23T00:53:20.584Z,43.73
2023-04-23T00:54:20.619Z,56.32
2023-04-23T00:55:20.610Z,44.40
2023-04-23T00:56:20.638Z,51.32
2023-04-23T00:57:20.586Z,53.34
2023-04-23T00:58:20.621Z,52.60
2023-04-23T00:59:20.572Z,50.32
2023-04-23T01:00:20.583Z,51.11
2023-04-23T01:01:20.573Z,46.11
2023-04-23T01:02:20.650Z,46.51
2023-04-23T01:03:20.672Z,45.45
2023-04-23T01:04:20.543Z,46.43
2023-04-23T01:05:20.545Z,51.14
2023-04-23T01:06:20.520Z,50.21
2023-04-23T01:07:20.491Z,43.90
2023-04-23T01:08:20.500Z,51.76
2023-04-23T01:09:20.509Z,44.21
2023-04-23T01:10:20.467Z,43.59
2023-04-23T01:11:20.531Z,43.67
2023-04-23T01:12:20.504Z,43.74
2023-04-23T01:13:20.424Z,43.52
2023-04-23T01:14:20.444Z,43.58
2023-04-23T01:15:20.426Z,49.91
2023-04-23T01:16:20.479Z,43.89
2023-04-23T01:17:20.446Z,43.48
2023-04-23T01:18:20.395Z,43.40
2023-04-23T01:19:20.381Z,43.60
2023-04-23T01:20:20.560Z,50.00
2023-04-23T01:21:20.394Z,43.40
2023-04-23T01:22:20.425Z,43.50
2023-04-23T01:23:20.408Z,44.21
2023-04-23T01:24:20.371Z,44.47
2023-04-23T01:25:20.368Z,44.78
2023-04-23T01:26:20.356Z,49.69
2023-04-23T01:27:20.354Z,48.69
2023-04-23T01:28:20.357Z,44.21
2023-04-23T01:29:20.345Z,49.54
2023-04-23T01:30:20.307Z,51.07
2023-04-23T01:31:20.357Z,43.41
2023-04-23T01:32:20.326Z,43.38
2023-04-23T01:33:20.311Z,49.91
2023-04-23T01:34:20.297Z,44.07
2023-04-23T01:35:20.312Z,49.54
2023-04-23T01:36:20.252Z,45.67
2023-04-23T01:37:20.255Z,56.95
2023-04-23T01:38:20.343Z,43.72
2023-04-23T01:39:20.269Z,43.49
2023-04-23T01:40:20.271Z,43.44
2023-04-23T01:41:21.139Z,43.32
2023-04-23T01:42:20.233Z,43.36
2023-04-23T01:43:20.234Z,43.36
2023-04-23T01:44:20.200Z,43.70
2023-04-23T01:45:20.249Z,43.82
2023-04-23T01:46:20.205Z,44.17
2023-04-23T01:47:20.237Z,44.32
2023-04-23T01:48:20.203Z,51.19
2023-04-23T01:49:20.167Z,44.98
2023-04-23T01:50:20.168Z,44.38
2023-04-23T01:51:20.168Z,44.40
2023-04-23T01:52:20.178Z,44.15
2023-04-23T01:53:20.130Z,44.07
2023-04-23T01:54:20.132Z,43.70
2023-04-23T01:55:20.107Z,43.68
2023-04-23T01:56:20.115Z,43.75
2023-04-23T01:57:20.108Z,43.89
2023-04-23T01:58:20.137Z,49.52
2023-04-23T01:59:20.096Z,43.59
2023-04-23T02:00:20.220Z,43.53
2023-04-23T02:01:20.092Z,49.72
2023-04-23T02:02:20.090Z,43.95
2023-04-23T02:03:20.310Z,43.63
2023-04-23T02:04:20.169Z,43.82
2023-04-23T02:05:20.054Z,45.91
2023-04-23T02:06:20.024Z,49.10
2023-04-23T02:07:20.045Z,44.24
2023-04-23T02:08:20.067Z,47.07
2023-04-23T02:09:20.076Z,47.55
2023-04-23T02:10:20.002Z,44.79
2023-04-23T02:11:20.021Z,51.97
2023-04-23T02:12:19.972Z,46.19
2023-04-23T02:13:20.017Z,45.58
2023-04-23T02:14:19.997Z,44.98
2023-04-23T02:15:20.040Z,45.53
2023-04-23T02:16:20.007Z,46.81
2023-04-23T02:17:19.987Z,52.92
2023-04-23T02:18:19.934Z,52.13
2023-04-23T02:19:19.929Z,51.51
2023-04-23T02:20:19.949Z,52.68
2023-04-23T02:21:20.639Z,57.07
2023-04-23T02:22:19.918Z,52.83
2023-04-23T02:23:19.884Z,52.30
2023-04-23T02:24:19.900Z,51.46
2023-04-23T02:25:19.916Z,52.09
2023-04-23T02:26:19.897Z,55.38
2023-04-23T02:27:19.852Z,49.15
2023-04-23T02:28:19.869Z,48.63
2023-04-23T02:29:19.883Z,54.30
2023-04-23T02:30:19.861Z,56.10
2023-04-23T02:31:19.887Z,51.46
2023-04-23T02:32:19.855Z,50.00
2023-04-23T02:33:19.825Z,49.70
2023-04-23T02:34:19.835Z,49.92
2023-04-23T02:35:19.852Z,49.49
2023-04-23T02:36:19.792Z,49.42
2023-04-23T02:37:19.801Z,53.66
2023-04-23T02:38:19.839Z,50.48
2023-04-23T02:39:19.756Z,50.19
2023-04-23T02:40:19.771Z,50.49
2023-04-23T02:41:19.758Z,53.97
2023-04-23T02:42:19.758Z,53.69
2023-04-23T02:43:20.473Z,53.66
2023-04-23T02:44:19.730Z,48.46
2023-04-23T02:45:19.740Z,52.37
2023-04-23T02:46:19.726Z,51.63
2023-04-23T02:47:20.537Z,51.90
2023-04-23T02:48:19.726Z,55.50
2023-04-23T02:49:19.721Z,51.87
2023-04-23T02:50:19.686Z,52.62
2023-04-23T02:51:19.694Z,53.94
2023-04-23T02:52:19.666Z,53.40
2023-04-23T02:53:19.711Z,53.15
2023-04-23T02:54:19.674Z,51.95
2023-04-23T02:55:19.727Z,55.06
2023-04-23T02:56:19.681Z,50.47
2023-04-23T02:57:20.672Z,50.16
2023-04-23T02:58:19.622Z,50.97
2023-04-23T02:59:19.628Z,50.09
2023-04-23T03:00:19.622Z,49.60
2023-04-23T03:01:19.638Z,49.34
2023-04-23T03:02:19.701Z,54.79
2023-04-23T03:03:19.662Z,50.97
2023-04-23T03:04:19.687Z,51.93
2023-04-23T03:05:19.592Z,52.07
2023-04-23T03:06:19.559Z,52.74
2023-04-23T03:07:19.583Z,51.41
2023-04-23T03:08:19.565Z,52.57
2023-04-23T03:09:19.564Z,53.39
2023-04-23T03:10:19.575Z,51.38
2023-04-23T03:11:19.523Z,53.50
2023-04-23T03:12:19.519Z,52.23
2023-04-23T03:13:19.553Z,51.78
2023-04-23T03:14:19.508Z,50.99
2023-04-23T03:15:19.499Z,51.58
2023-04-23T03:16:19.537Z,52.30
2023-04-23T03:17:19.486Z,51.70
2023-04-23T03:18:19.489Z,52.28
2023-04-23T03:19:19.457Z,55.30
2023-04-23T03:20:19.484Z,56.42
2023-04-23T03:21:19.489Z,55.99
2023-04-23T03:22:19.494Z,58.74
2023-04-23T03:23:19.465Z,56.27
2023-04-23T03:24:19.452Z,54.68
2023-04-23T03:25:19.417Z,53.16
2023-04-23T03:26:19.535Z,55.88
2023-04-23T03:27:19.479Z,51.03
2023-04-23T03:28:19.604Z,49.64
2023-04-23T03:29:19.369Z,50.32
2023-04-23T03:30:19.407Z,53.04
2023-04-23T03:31:19.430Z,58.75
2023-04-23T03:32:19.444Z,50.50
2023-04-23T03:33:19.379Z,48.47
2023-04-23T03:34:19.382Z,48.85
2023-04-23T03:35:19.341Z,52.68
2023-04-23T03:36:19.393Z,52.56
2023-04-23T03:37:19.329Z,59.26
2023-04-23T03:38:19.403Z,58.66
2023-04-23T03:39:19.322Z,60.23
2023-04-23T03:40:19.307Z,58.36
2023-04-23T03:41:19.327Z,62.71
2023-04-23T03:42:19.386Z,60.02
2023-04-23T03:43:19.299Z,60.35
2023-04-23T03:44:19.314Z,51.69
2023-04-23T03:45:19.432Z,55.29
2023-04-23T03:46:19.350Z,53.13
2023-04-23T04:03:15.966Z,50.13
2023-04-23T04:04:16.139Z,46.08
2023-04-23T04:05:16.009Z,58.16
2023-04-23T04:06:15.736Z,51.17
2023-04-23T04:07:15.710Z,51.65
2023-04-23T04:08:15.757Z,46.28
2023-04-23T04:09:15.720Z,46.92
2023-04-23T04:10:15.750Z,46.52
2023-04-23T04:11:15.710Z,51.42
2023-04-23T04:12:15.688Z,49.68
2023-04-23T04:13:15.742Z,48.29
2023-04-23T04:14:15.655Z,46.74
2023-04-23T04:15:16.001Z,50.09
2023-04-23T04:16:15.682Z,48.33
2023-04-23T04:17:15.695Z,47.40
2023-04-23T04:18:15.651Z,55.42
2023-04-23T04:19:15.626Z,57.88
2023-04-23T04:20:15.667Z,47.18
2023-04-23T04:21:15.713Z,52.25
2023-04-23T04:22:15.656Z,54.17
2023-04-23T04:23:16.307Z,51.70
2023-04-23T04:24:15.586Z,51.33
2023-04-23T04:25:15.591Z,51.07
2023-04-23T04:26:15.573Z,47.11
2023-04-23T04:27:15.584Z,56.85
2023-04-23T04:28:15.614Z,53.93
2023-04-23T04:29:15.595Z,44.80
2023-04-23T04:30:15.530Z,44.23
2023-04-23T04:31:15.546Z,49.93
2023-04-23T04:32:15.584Z,50.08
2023-04-23T04:33:15.536Z,58.34
2023-04-23T04:34:15.548Z,46.65
2023-04-23T04:35:15.507Z,53.34
2023-04-23T04:36:15.510Z,52.14
2023-04-23T04:37:15.505Z,47.08
2023-04-23T04:38:15.495Z,51.52
2023-04-23T04:39:15.508Z,51.66
2023-04-23T04:40:15.488Z,53.51
2023-04-23T04:41:15.450Z,46.61
2023-04-23T04:42:15.453Z,52.59
2023-04-23T04:43:15.429Z,59.66
2023-04-23T04:44:15.490Z,46.91
2023-04-23T04:45:15.457Z,56.15
2023-04-23T04:46:15.462Z,47.99
2023-04-23T04:47:15.410Z,47.25
2023-04-23T04:48:15.406Z,47.49
2023-04-23T04:49:15.420Z,46.37
2023-04-23T04:50:15.422Z,45.91
2023-04-23T04:51:15.374Z,45.76
2023-04-23T04:52:15.391Z,50.87
2023-04-23T04:53:15.369Z,46.72
2023-04-23T04:54:15.455Z,50.87
2023-04-23T04:55:15.381Z,51.41
2023-04-23T04:56:15.323Z,52.22
2023-04-23T04:57:15.332Z,47.10
2023-04-23T04:58:15.329Z,46.64
2023-04-23T04:59:15.311Z,47.11
2023-04-23T05:00:16.294Z,49.57
2023-04-23T05:01:15.306Z,49.55
2023-04-23T05:02:15.406Z,50.13
2023-04-23T05:03:15.440Z,46.19
2023-04-23T05:04:15.481Z,49.38
2023-04-23T05:05:15.287Z,51.97
2023-04-23T05:06:15.350Z,47.31
2023-04-23T05:07:15.290Z,45.30
2023-04-23T05:08:15.249Z,55.62
2023-04-23T05:09:15.234Z,50.27
2023-04-23T05:10:15.241Z,48.81
2023-04-23T05:11:15.242Z,53.06
2023-04-23T05:12:15.244Z,56.34
2023-04-23T05:13:15.210Z,54.48
2023-04-23T05:14:15.207Z,46.68
2023-04-23T05:15:15.226Z,50.57
2023-04-23T05:16:15.254Z,46.99
2023-04-23T05:17:15.185Z,49.34
2023-04-23T05:18:15.182Z,53.87
2023-04-23T05:19:15.192Z,50.06
2023-04-23T05:20:15.863Z,47.81
2023-04-23T05:21:15.816Z,53.77
2023-04-23T05:22:15.163Z,49.60
2023-04-23T05:23:15.144Z,60.82
2023-04-23T05:24:15.139Z,55.35
2023-04-23T05:25:15.119Z,48.49
2023-04-23T05:26:15.155Z,47.78
2023-04-23T05:27:15.106Z,50.64
2023-04-23T05:28:15.103Z,48.95
2023-04-23T05:29:15.088Z,48.11
2023-04-23T05:30:15.074Z,54.12
2023-04-23T05:31:15.069Z,48.53
2023-04-23T05:32:15.208Z,51.93
2023-04-23T05:33:15.072Z,49.15
2023-04-23T05:34:15.101Z,56.67
2023-04-23T05:35:15.051Z,53.20
2023-04-23T05:36:15.053Z,50.52
2023-04-23T05:37:15.022Z,47.21
2023-04-23T05:38:15.043Z,46.61
2023-04-23T05:39:15.041Z,59.87
2023-04-23T05:40:15.012Z,52.06
2023-04-23T05:41:15.047Z,56.82
2023-04-23T05:42:14.995Z,49.05
2023-04-23T05:43:15.017Z,57.45
2023-04-23T05:44:14.971Z,62.06
2023-04-23T05:45:14.988Z,50.01
2023-04-23T05:46:14.988Z,47.65
2023-04-23T05:47:14.956Z,46.65
2023-04-23T05:48:14.922Z,52.38
2023-04-23T05:49:14.957Z,51.34
2023-04-23T05:50:14.939Z,49.71
2023-04-23T05:51:14.926Z,50.95
2023-04-23T05:52:14.914Z,54.12
2023-04-23T05:53:14.905Z,60.95
2023-04-23T05:54:14.912Z,55.23
2023-04-23T05:55:14.872Z,46.32
2023-04-23T05:56:14.898Z,47.05
2023-04-23T05:57:14.858Z,55.34
2023-04-23T05:58:14.902Z,54.18
2023-04-23T05:59:14.847Z,51.18
2023-04-23T06:00:14.852Z,59.82
2023-04-23T06:01:15.808Z,59.97
2023-04-23T06:02:14.994Z,57.73
2023-04-23T06:03:15.085Z,59.60
2023-04-23T06:04:15.118Z,59.72
2023-04-23T06:05:15.044Z,53.93
2023-04-23T06:06:14.857Z,47.64
2023-04-23T06:07:14.826Z,62.30
2023-04-23T06:08:14.786Z,56.44
2023-04-23T06:09:14.831Z,49.91
2023-04-23T06:10:14.777Z,49.78
2023-04-23T06:11:14.774Z,58.36
2023-04-23T06:12:14.741Z,51.02
2023-04-23T06:13:14.868Z,49.21
2023-04-23T06:14:14.732Z,61.10
2023-04-23T06:15:14.755Z,52.44
2023-04-23T06:16:14.773Z,50.66
2023-04-23T06:17:14.745Z,59.28
2023-04-23T06:18:14.799Z,60.10
2023-04-23T06:19:14.725Z,61.01
2023-04-23T06:20:14.719Z,55.36
2023-04-23T06:21:14.719Z,59.20
2023-04-23T06:22:14.702Z,53.10
2023-04-23T06:23:14.692Z,50.67
2023-04-23T06:24:14.710Z,57.49
2023-04-23T06:25:14.656Z,48.51
2023-04-23T06:26:14.688Z,54.88
2023-04-23T06:27:14.671Z,54.02
2023-04-23T06:28:14.633Z,60.78
2023-04-23T06:29:14.636Z,56.03
2023-04-23T06:30:14.654Z,61.55
2023-04-23T06:31:14.660Z,48.47
2023-04-23T06:32:14.646Z,56.19
2023-04-23T06:33:14.606Z,55.38
2023-04-23T06:34:14.588Z,58.39
2023-04-23T06:35:14.589Z,52.32
2023-04-23T06:36:14.588Z,51.10
2023-04-23T06:37:14.575Z,59.30
2023-04-23T06:38:14.576Z,56.89
2023-04-23T06:39:14.571Z,46.29
2023-04-23T06:40:14.550Z,60.39
2023-04-23T06:41:14.543Z,58.63
2023-04-23T06:42:14.532Z,53.64
2023-04-23T06:43:14.659Z,63.20
2023-04-23T06:44:14.677Z,45.77
2023-04-23T06:45:14.594Z,60.70
2023-04-23T06:46:14.536Z,53.63
2023-04-23T06:47:14.490Z,57.51
2023-04-23T06:48:14.609Z,56.91
2023-04-23T06:49:14.624Z,61.71
2023-04-23T06:50:14.509Z,60.22
2023-04-23T06:51:14.483Z,61.54
2023-04-23T06:52:14.455Z,54.39
2023-04-23T06:53:14.454Z,59.30
2023-04-23T06:54:14.474Z,57.06
2023-04-23T06:55:14.430Z,55.51
2023-04-23T06:56:14.664Z,60.86
2023-04-23T06:57:14.415Z,52.37
2023-04-23T06:58:16.007Z,63.17
2023-04-23T06:59:14.416Z,59.01
2023-04-23T07:00:15.307Z,58.36
2023-04-23T07:01:14.417Z,62.00
2023-04-23T07:02:14.436Z,55.36
2023-04-23T07:03:14.437Z,59.58
2023-04-23T07:04:14.454Z,57.90
2023-04-23T07:05:14.383Z,59.62
2023-04-23T07:06:14.380Z,52.29
2023-04-23T07:07:14.355Z,55.56
2023-04-23T07:08:15.367Z,59.71
2023-04-23T07:09:14.341Z,63.30
2023-04-23T07:10:16.296Z,55.68
2023-04-23T07:11:15.360Z,61.32
2023-04-23T07:12:14.326Z,58.08
2023-04-23T07:13:14.341Z,58.17
2023-04-23T07:14:14.306Z,50.63
2023-04-23T07:15:14.322Z,52.52
2023-04-23T07:16:14.343Z,61.69
2023-04-23T07:17:14.322Z,55.27
2023-04-23T07:18:14.310Z,56.28
2023-04-23T07:19:14.279Z,57.85
2023-04-23T07:20:14.276Z,60.37
2023-04-23T07:21:14.295Z,59.56
2023-04-23T07:22:14.263Z,62.68
2023-04-23T07:23:14.242Z,63.28
2023-04-23T07:24:14.274Z,61.49
2023-04-23T07:25:14.230Z,54.32
2023-04-23T07:26:14.225Z,60.90
2023-04-23T07:27:14.240Z,62.92
2023-04-23T07:28:14.206Z,57.10
2023-04-23T07:29:14.262Z,65.09
2023-04-23T07:30:14.214Z,62.77
2023-04-23T07:31:14.223Z,64.84
2023-04-23T07:32:14.288Z,57.92
2023-04-23T07:33:14.195Z,55.09
2023-04-23T07:34:14.188Z,65.29
2023-04-23T07:35:14.151Z,62.33
2023-04-23T07:36:14.413Z,60.05
2023-04-23T07:37:14.176Z,54.00
2023-04-23T07:38:14.134Z,65.64
2023-04-23T07:39:14.175Z,58.66
2023-04-23T07:40:14.142Z,61.98
2023-04-23T07:41:14.129Z,62.53
2023-04-23T07:42:14.209Z,59.11
2023-04-23T07:43:14.107Z,61.48
2023-04-23T07:44:14.119Z,66.32
2023-04-23T07:45:14.093Z,55.21
2023-04-23T07:46:14.104Z,58.10
2023-04-23T07:47:14.079Z,56.69
2023-04-23T07:48:14.064Z,61.26
2023-04-23T07:49:14.246Z,59.63
2023-04-23T07:50:14.053Z,58.09
2023-04-23T07:51:14.075Z,57.28
2023-04-23T07:52:14.258Z,55.36
2023-04-23T07:53:14.010Z,59.90
2023-04-23T07:54:14.094Z,62.63
2023-04-23T07:55:14.034Z,56.66
2023-04-23T07:56:14.033Z,63.75
2023-04-23T07:57:13.998Z,60.62
2023-04-23T07:58:14.051Z,63.45
2023-04-23T07:59:14.018Z,54.07
2023-04-23T08:00:14.034Z,57.44
2023-04-23T08:01:13.969Z,61.03
2023-04-23T08:02:14.106Z,66.07
2023-04-23T08:03:14.169Z,60.55
2023-04-23T08:04:14.304Z,59.09
2023-04-23T08:05:13.998Z,59.67
2023-04-23T08:06:13.949Z,51.96
2023-04-23T08:07:13.924Z,58.26
2023-04-23T08:08:13.896Z,63.25
2023-04-23T08:09:13.955Z,57.59
2023-04-23T08:10:13.926Z,64.16
2023-04-23T08:11:13.929Z,47.40
2023-04-23T08:12:13.880Z,54.91
2023-04-23T08:13:13.864Z,57.39
2023-04-23T08:14:13.853Z,65.31
2023-04-23T08:15:13.913Z,58.28
2023-04-23T08:16:13.926Z,58.64
2023-04-23T08:17:13.895Z,64.46
2023-04-23T08:18:13.837Z,57.70
2023-04-23T08:19:13.845Z,56.35
2023-04-23T08:20:13.832Z,58.47
2023-04-23T08:21:13.856Z,55.46
2023-04-23T08:22:13.823Z,59.22
2023-04-23T08:23:13.809Z,52.29
2023-04-23T08:24:14.372Z,56.01
2023-04-23T08:25:13.781Z,59.00
2023-04-23T08:26:13.814Z,55.97
2023-04-23T08:27:13.803Z,54.37
2023-04-23T08:28:13.827Z,63.03
2023-04-23T08:29:13.786Z,55.12
2023-04-23T08:30:13.774Z,60.46
2023-04-23T08:31:25.856Z,63.80
2023-04-23T08:32:15.867Z,56.69
2023-04-23T08:33:13.774Z,51.80
2023-04-23T08:34:13.735Z,57.20
2023-04-23T08:35:13.709Z,57.55
2023-04-23T08:36:13.702Z,60.12
2023-04-23T08:37:23.196Z,58.05
2023-04-23T08:38:15.727Z,63.21
2023-04-23T08:39:13.781Z,59.87
2023-04-23T08:40:13.696Z,54.30
2023-04-23T08:41:13.651Z,57.31
2023-04-23T08:42:13.808Z,60.39
2023-04-23T08:43:13.641Z,58.51
2023-04-23T08:44:13.676Z,55.72
2023-04-23T08:45:13.667Z,55.00
2023-04-23T08:46:13.693Z,60.86
2023-04-23T08:47:13.639Z,62.54
2023-04-23T08:48:13.686Z,56.90
2023-04-23T08:49:13.660Z,61.07
2023-04-23T08:50:13.624Z,61.09
2023-04-23T08:51:13.577Z,52.49
2023-04-23T08:52:13.587Z,63.03
2023-04-23T08:53:13.621Z,56.82
2023-04-23T08:54:13.587Z,61.19
2023-04-23T08:55:13.588Z,63.73
2023-04-23T08:56:13.587Z,51.18
2023-04-23T08:57:13.597Z,53.12
2023-04-23T08:58:14.295Z,61.63
2023-04-23T08:59:13.592Z,62.44
2023-04-23T09:00:13.651Z,60.76
2023-04-23T09:01:14.567Z,60.57
2023-04-23T09:02:13.580Z,61.20
2023-04-23T09:03:13.625Z,63.39
2023-04-23T09:04:13.510Z,56.43
2023-04-23T09:05:13.510Z,62.51
2023-04-23T09:06:13.496Z,63.94
2023-04-23T09:07:13.615Z,55.65
2023-04-23T09:08:13.700Z,63.52
2023-04-23T09:09:13.534Z,59.88
2023-04-23T09:10:16.078Z,55.19
2023-04-23T09:11:13.486Z,62.83
2023-04-23T09:12:13.488Z,54.75
2023-04-23T09:13:13.569Z,56.42
2023-04-23T09:14:13.543Z,53.26
2023-04-23T09:15:13.543Z,64.66
2023-04-23T09:16:13.620Z,64.07
2023-04-23T09:17:13.477Z,64.39
2023-04-23T09:18:13.450Z,63.25
2023-04-23T09:19:13.424Z,62.70
2023-04-23T09:20:13.416Z,59.54
2023-04-23T09:21:13.398Z,61.20
2023-04-23T09:22:13.522Z,61.26
2023-04-23T09:23:13.404Z,64.11
2023-04-23T09:24:13.422Z,60.17
2023-04-23T09:25:13.400Z,60.87
2023-04-23T09:26:13.364Z,68.36
2023-04-23T09:27:14.392Z,59.58
2023-04-23T09:28:13.333Z,50.12
2023-04-23T09:29:13.335Z,59.99
2023-04-23T09:30:13.349Z,59.12
2023-04-23T09:31:13.344Z,61.69
2023-04-23T09:32:13.374Z,64.33
2023-04-23T09:33:13.323Z,61.51
2023-04-23T09:34:13.290Z,54.42
2023-04-23T09:35:13.299Z,61.25
2023-04-23T09:36:13.328Z,62.87
2023-04-23T09:37:13.319Z,64.32
2023-04-23T09:38:13.321Z,54.92
2023-04-23T09:39:13.277Z,63.61
2023-04-23T09:40:13.238Z,65.89
2023-04-23T09:41:13.245Z,58.86
2023-04-23T09:42:13.278Z,63.58
2023-04-23T09:43:13.231Z,59.75
2023-04-23T09:44:13.244Z,62.98
2023-04-23T09:45:13.185Z,60.68
2023-04-23T09:46:13.222Z,67.76
2023-04-23T09:47:13.488Z,58.66
2023-04-23T09:48:13.174Z,63.90
2023-04-23T09:49:13.212Z,64.49
2023-04-23T09:50:13.229Z,59.37
2023-04-23T09:51:13.151Z,69.76
2023-04-23T09:52:13.187Z,61.59
2023-04-23T09:53:13.148Z,63.20
2023-04-23T09:54:13.122Z,61.06
2023-04-23T09:55:13.120Z,62.86
2023-04-23T09:56:13.139Z,64.45
2023-04-23T09:57:13.105Z,64.57
2023-04-23T09:58:13.121Z,59.09
2023-04-23T09:59:13.111Z,59.51
2023-04-23T10:00:14.791Z,65.21
2023-04-23T10:01:14.128Z,62.45
2023-04-23T10:02:13.226Z,60.88
2023-04-23T10:03:13.193Z,59.07
2023-04-23T10:04:13.206Z,64.10
2023-04-23T10:05:23.466Z,59.28
2023-04-23T10:06:30.604Z,61.24
2023-04-23T10:07:19.708Z,61.71
2023-04-23T10:08:15.237Z,63.32
2023-04-23T10:09:13.100Z,64.40
2023-04-23T10:10:13.055Z,51.50
2023-04-23T10:11:20.725Z,67.10
2023-04-23T10:12:35.384Z,65.30
2023-04-23T10:13:15.065Z,64.96
2023-04-23T10:14:13.040Z,62.00
2023-04-23T10:15:12.957Z,55.01
2023-04-23T10:16:22.315Z,54.26
2023-04-23T10:17:14.974Z,57.19
2023-04-23T10:18:12.971Z,58.53
2023-04-23T10:19:13.379Z,47.48
2023-04-23T10:20:12.923Z,64.68
2023-04-23T10:21:12.929Z,62.70
2023-04-23T10:22:18.998Z,59.94
2023-04-23T10:23:14.922Z,61.81
2023-04-23T10:24:12.927Z,56.66
2023-04-23T10:25:12.927Z,60.82
2023-04-23T10:26:12.880Z,64.44
2023-04-23T10:27:24.801Z,54.16
2023-04-23T10:28:14.928Z,64.23
2023-04-23T10:29:12.862Z,60.76
2023-04-23T10:30:12.896Z,55.25
2023-04-23T10:31:12.903Z,62.10
2023-04-23T10:32:12.830Z,62.22
2023-04-23T10:33:22.380Z,63.55
2023-04-23T10:34:14.918Z,59.21
2023-04-23T10:35:12.858Z,61.02
2023-04-23T10:36:12.817Z,64.36
2023-04-23T10:37:12.804Z,59.29
2023-04-23T10:38:12.797Z,65.02
2023-04-23T10:39:12.777Z,63.46
2023-04-23T10:40:12.807Z,63.50
2023-04-23T10:41:12.785Z,60.41
2023-04-23T10:42:12.753Z,57.85
2023-04-23T10:43:12.748Z,58.27
2023-04-23T10:44:13.892Z,65.66
2023-04-23T10:45:23.096Z,57.00
2023-04-23T10:46:14.806Z,66.99
2023-04-23T10:47:12.722Z,63.75
2023-04-23T10:48:13.757Z,58.33
2023-04-23T10:49:12.739Z,62.69
2023-04-23T10:50:12.735Z,56.78
2023-04-23T10:51:49.479Z,61.62
2023-04-23T10:52:20.012Z,57.35
2023-04-23T10:53:14.729Z,62.11
2023-04-23T10:54:12.681Z,64.13
2023-04-23T10:55:12.729Z,59.60
2023-04-23T10:56:12.657Z,59.78
2023-04-23T10:57:12.673Z,59.46
2023-04-23T10:58:12.644Z,63.05
2023-04-23T10:59:12.686Z,61.18
2023-04-23T11:00:12.672Z,55.83
2023-04-23T11:01:12.652Z,58.70
2023-04-23T11:02:12.758Z,60.51
2023-04-23T11:03:12.820Z,61.47
2023-04-23T11:04:12.816Z,61.58
2023-04-23T11:05:12.695Z,64.68
2023-04-23T11:06:12.628Z,60.94
2023-04-23T11:07:12.612Z,60.95
2023-04-23T11:08:19.197Z,62.58
2023-04-23T11:09:14.587Z,55.91
2023-04-23T11:10:12.573Z,64.40
2023-04-23T11:11:12.551Z,62.68
2023-04-23T11:12:12.560Z,58.61
2023-04-23T11:13:12.551Z,63.55
2023-04-23T11:14:12.544Z,54.99
2023-04-23T11:15:12.562Z,62.89
2023-04-23T11:16:13.498Z,57.35
2023-04-23T11:17:12.530Z,62.38
2023-04-23T11:18:13.523Z,61.29
2023-04-23T11:19:12.588Z,59.44
2023-04-23T11:20:12.564Z,62.93
2023-04-23T11:21:12.491Z,62.55
2023-04-23T11:22:12.523Z,62.68
2023-04-23T11:23:12.460Z,56.53
2023-04-23T11:24:12.496Z,59.57
2023-04-23T11:25:12.475Z,66.19
2023-04-23T11:26:12.454Z,67.42
2023-04-23T11:27:12.422Z,65.50
2023-04-23T11:28:12.444Z,55.38
2023-04-23T11:29:12.560Z,62.95
2023-04-23T11:30:12.409Z,65.37
2023-04-23T11:31:12.406Z,61.73
2023-04-23T11:32:12.465Z,61.77
2023-04-23T11:33:12.548Z,57.18
2023-04-23T11:34:12.442Z,62.23
2023-04-23T11:35:13.816Z,62.53
2023-04-23T11:36:13.470Z,62.65
2023-04-23T11:37:12.379Z,62.52
2023-04-23T11:38:12.367Z,58.78
2023-04-23T11:39:12.343Z,62.04
2023-04-23T11:40:12.408Z,59.06
2023-04-23T11:41:12.360Z,56.70
2023-04-23T11:42:12.338Z,61.26
2023-04-23T11:43:12.392Z,61.60
2023-04-23T11:44:12.334Z,59.57
2023-04-23T11:45:12.319Z,58.95
2023-04-23T11:46:12.354Z,61.47
2023-04-23T11:47:12.276Z,57.88
2023-04-23T11:48:12.283Z,63.41
2023-04-23T11:49:12.310Z,65.42
2023-04-23T11:50:12.379Z,65.11
2023-04-23T11:51:12.293Z,59.49
2023-04-23T11:52:12.282Z,65.40
2023-04-23T11:53:12.219Z,61.91
2023-04-23T11:54:12.244Z,64.26
2023-04-23T11:55:12.231Z,59.06
2023-04-23T11:56:12.235Z,59.55
2023-04-23T11:57:12.258Z,64.51
2023-04-23T11:58:12.202Z,58.78
2023-04-23T11:59:12.220Z,58.96
2023-04-23T12:00:12.263Z,56.31
2023-04-23T12:01:12.229Z,58.58
2023-04-23T12:02:12.259Z,65.13
2023-04-23T12:03:12.408Z,62.94
2023-04-23T12:04:12.467Z,56.68
2023-04-23T12:05:12.178Z,65.24
2023-04-23T12:06:12.177Z,59.21
2023-04-23T12:07:25.393Z,60.60
2023-04-23T12:08:14.117Z,64.21
2023-04-23T12:09:12.116Z,66.86
2023-04-23T12:10:12.152Z,66.53
2023-04-23T12:11:12.100Z,57.41
2023-04-23T12:12:12.149Z,62.94
2023-04-23T12:13:12.112Z,61.78
2023-04-23T12:14:12.080Z,64.46
2023-04-23T12:15:12.105Z,63.08
2023-04-23T12:16:12.187Z,56.24
2023-04-23T12:17:12.077Z,62.12
2023-04-23T12:18:12.080Z,66.64
2023-04-23T12:19:12.095Z,64.53
2023-04-23T12:20:12.057Z,64.65
2023-04-23T12:21:12.061Z,65.70
2023-04-23T12:22:12.016Z,56.48
2023-04-23T12:23:12.037Z,57.31
2023-04-23T12:24:12.014Z,62.00
2023-04-23T12:25:12.010Z,62.94
2023-04-23T12:26:12.041Z,61.83
2023-04-23T12:27:12.035Z,63.95
2023-04-23T12:28:12.015Z,65.91
2023-04-23T12:29:12.001Z,65.30
2023-04-23T12:30:12.168Z,66.91
2023-04-23T12:31:12.591Z,66.19
2023-04-23T12:32:12.204Z,67.35
2023-04-23T12:33:12.042Z,62.66
2023-04-23T12:34:11.992Z,65.67
2023-04-23T12:35:11.948Z,62.97
2023-04-23T12:36:11.948Z,67.48
2023-04-23T12:37:11.913Z,59.22
2023-04-23T12:38:11.982Z,56.56
2023-04-23T12:39:11.941Z,61.66
2023-04-23T12:40:12.469Z,65.05
2023-04-23T12:41:11.924Z,65.17
2023-04-23T12:42:11.898Z,57.86
2023-04-23T12:43:11.947Z,59.42
2023-04-23T12:44:44.376Z,57.15
2023-04-23T12:45:43.803Z,60.88
2023-04-23T12:46:11.892Z,65.70
2023-04-23T12:47:11.813Z,65.04
2023-04-23T12:48:11.807Z,66.43
2023-04-23T12:49:11.827Z,64.43
2023-04-23T12:50:11.800Z,61.81
2023-04-23T12:51:11.816Z,61.82
2023-04-23T12:52:13.896Z,64.91
2023-04-23T12:53:12.798Z,61.97
2023-04-23T12:54:11.766Z,60.92
2023-04-23T12:55:11.843Z,62.90
2023-04-23T12:56:11.777Z,63.30
2023-04-23T12:57:11.742Z,66.21
2023-04-23T12:58:11.798Z,58.66
2023-04-23T12:59:11.755Z,63.33
2023-04-23T13:00:11.710Z,63.95
2023-04-23T13:01:11.960Z,59.83
2023-04-23T13:02:11.905Z,58.33
2023-04-23T13:03:11.755Z,59.43
2023-04-23T13:04:11.691Z,63.05
2023-04-23T13:05:11.690Z,65.42
2023-04-23T13:06:11.723Z,59.70
2023-04-23T13:07:11.701Z,57.69
2023-04-23T13:08:11.670Z,56.60